createdAt,value
2023-03-07T00:04:21.618Z,94675.09
2023-03-07T00:09:23.110Z,94678.41
2023-03-07T00:14:24.682Z,94673.16
2023-03-07T00:19:26.246Z,94673.63
2023-03-07T00:24:27.752Z,94665.22
2023-03-07T00:29:29.295Z,94659.31
2023-03-07T00:34:30.796Z,94659.19
2023-03-07T00:39:32.320Z,94656.50
2023-03-07T00:44:34.353Z,94647.22
2023-03-07T00:49:35.887Z,94655.97
2023-03-07T00:54:37.815Z,94655.09
2023-03-07T00:59:39.322Z,94665.13
2023-03-07T01:04:40.848Z,94653.47
2023-03-07T01:09:42.416Z,94650.25
2023-03-07T01:14:43.954Z,94652.91
2023-03-07T01:19:45.537Z,94642.34
2023-03-07T01:24:48.211Z,94650.31
2023-03-07T01:29:49.952Z,94646.34
2023-03-07T01:34:52.017Z,94641.81
2023-03-07T01:39:54.359Z,94641.97
2023-03-07T01:45:35.216Z,94644.06
2023-03-07T01:50:39.283Z,94646.88
2023-03-07T01:55:40.844Z,94655.03
2023-03-07T02:00:47.381Z,94639.63
2023-03-07T02:05:55.689Z,94645.44
2023-03-07T02:10:57.206Z,94637.13
2023-03-07T02:16:01.142Z,94642.28
2023-03-07T02:21:09.123Z,94633.31
2023-03-07T02:26:21.915Z,94617.59
2023-03-07T02:31:24.695Z,94619.13
2023-03-07T02:36:32.390Z,94627.38
2023-03-07T02:41:55.168Z,94626.06
2023-03-07T02:47:08.725Z,94624.34
2023-03-07T02:52:10.572Z,94626.84
2023-03-07T02:57:12.130Z,94627.78
2023-03-07T03:02:14.119Z,94636.41
2023-03-07T03:07:15.648Z,94635.59
2023-03-07T03:12:17.217Z,94620.88
2023-03-07T03:17:20.665Z,94604.88
2023-03-07T03:22:22.207Z,94600.38
2023-03-07T03:27:25.324Z,94598.94
2023-03-07T03:32:27.189Z,94590.50
2023-03-07T03:37:28.716Z,94588.06
2023-03-07T03:42:30.466Z,94590.56
2023-03-07T03:47:31.939Z,94586.22
2023-03-07T03:52:35.699Z,94583.84
2023-03-07T03:57:37.710Z,94580.63
2023-03-07T04:02:40.615Z,94575.50
2023-03-07T04:07:46.729Z,94568.06
2023-03-07T04:12:48.541Z,94566.03
2023-03-07T04:17:50.136Z,94559.69
2023-03-07T04:22:52.707Z,94564.06
2023-03-07T04:27:54.263Z,94553.97
2023-03-07T04:32:55.949Z,94541.44
2023-03-07T04:37:57.731Z,94542.84
2023-03-07T04:42:59.983Z,94539.59
2023-03-07T04:48:01.712Z,94543.91
2023-03-07T04:53:04.198Z,94535.88
2023-03-07T04:58:05.728Z,94544.34
2023-03-07T05:03:08.828Z,94537.34
2023-03-07T05:08:10.456Z,94531.31
2023-03-07T05:13:12.212Z,94522.78
2023-03-07T05:18:13.870Z,94515.25
2023-03-07T05:23:15.548Z,94518.25
2023-03-07T05:28:17.413Z,94511.22
2023-03-07T05:33:19.120Z,94504.63
2023-03-07T05:38:21.183Z,94501.00
2023-03-07T05:43:23.194Z,94506.16
2023-03-07T05:48:26.351Z,94497.47
2023-03-07T05:53:27.868Z,94501.91
2023-03-07T05:58:30.148Z,94500.06
2023-03-07T06:03:32.048Z,94494.66
2023-03-07T06:08:33.696Z,94492.34
2023-03-07T06:13:35.372Z,94492.66
2023-03-07T06:18:36.890Z,94496.69
2023-03-07T06:23:38.469Z,94491.97
2023-03-07T06:28:45.327Z,94487.88
2023-03-07T06:33:48.557Z,94483.63
2023-03-07T06:38:52.249Z,94485.84
2023-03-07T06:43:54.658Z,94484.09
2023-03-07T06:49:01.360Z,94481.19
2023-03-07T06:54:03.360Z,94473.72
2023-03-07T06:59:04.908Z,94465.84
2023-03-07T07:04:06.474Z,94482.03
2023-03-07T07:09:08.122Z,94473.81
2023-03-07T07:14:12.962Z,94479.88
2023-03-07T07:19:16.000Z,94476.72
2023-03-07T07:24:17.982Z,94478.16
2023-03-07T07:29:19.561Z,94491.34
2023-03-07T07:34:22.570Z,94481.41
2023-03-07T07:39:24.214Z,94483.84
2023-03-07T07:44:29.650Z,94485.34
2023-03-07T07:49:33.498Z,94477.03
2023-03-07T07:54:35.287Z,94482.25
2023-03-07T07:59:36.947Z,94471.16
2023-03-07T08:04:40.777Z,94469.88
2023-03-07T08:09:42.270Z,94471.00
2023-03-07T08:14:43.828Z,94468.34
2023-03-07T08:19:45.365Z,94463.59
2023-03-07T08:24:46.960Z,94468.31
2023-03-07T08:29:49.379Z,94463.47
2023-03-07T08:34:50.978Z,94452.09
2023-03-07T08:39:52.447Z,94447.28
2023-03-07T08:44:53.938Z,94440.66
2023-03-07T08:49:55.438Z,94443.69
2023-03-07T08:54:56.959Z,94437.88
2023-03-07T08:59:58.438Z,94440.25
2023-03-07T09:05:00.048Z,94439.34
2023-03-07T09:10:01.801Z,94442.69
2023-03-07T09:15:03.629Z,94441.56
2023-03-07T09:20:06.493Z,94416.94
2023-03-07T09:25:08.438Z,94409.78
2023-03-07T09:30:12.333Z,94400.75
2023-03-07T09:35:13.803Z,94401.47
2023-03-07T09:40:25.059Z,94393.44
2023-03-07T09:45:39.438Z,94385.28
2023-03-07T09:50:55.854Z,94371.13
2023-03-07T09:55:58.928Z,94367.53
2023-03-07T10:01:00.420Z,94359.47
2023-03-07T10:06:14.919Z,94354.31
2023-03-07T10:11:46.255Z,94338.22
2023-03-07T10:17:03.381Z,94333.13
2023-03-07T10:22:20.303Z,94312.91
2023-03-07T10:27:26.436Z,94317.16
2023-03-07T10:32:47.069Z,94308.72
2023-03-07T10:38:24.045Z,94296.88
2023-03-07T10:43:29.867Z,94293.75
2023-03-07T10:48:31.603Z,94276.84
2023-03-07T10:53:36.531Z,94263.38
2023-03-07T10:58:38.144Z,94261.06
2023-03-07T11:03:52.751Z,94255.56
2023-03-07T11:08:55.599Z,94255.75
2023-03-07T11:14:14.100Z,94253.84
2023-03-07T11:19:35.249Z,94241.75
2023-03-07T11:24:39.154Z,94228.28
2023-03-07T11:29:40.775Z,94227.16
2023-03-07T11:34:53.306Z,94226.00
2023-03-07T11:40:19.627Z,94224.84
2023-03-07T11:45:29.993Z,94213.22
2023-03-07T11:50:32.731Z,94212.44
2023-03-07T11:55:43.464Z,94203.56
2023-03-07T12:01:12.065Z,94208.03
2023-03-07T12:06:51.999Z,94204.88
2023-03-07T12:12:02.516Z,94190.13
2023-03-07T12:17:27.321Z,94181.47
2023-03-07T12:23:27.893Z,94171.47
2023-03-07T12:28:51.898Z,94167.41
2023-03-07T12:33:59.169Z,94162.97
2023-03-07T12:39:03.628Z,94156.44
2023-03-07T12:44:11.879Z,94149.03
2023-03-07T12:49:16.521Z,94140.09
2023-03-07T12:54:32.884Z,94130.44
2023-03-07T12:59:35.734Z,94141.53
2023-03-07T13:04:39.607Z,94143.06
2023-03-07T13:09:44.103Z,94129.47
2023-03-07T13:14:46.535Z,94120.28
2023-03-07T13:19:53.761Z,94117.31
2023-03-07T13:24:56.970Z,94117.81
2023-03-07T13:30:07.527Z,94106.06
2023-03-07T13:35:09.747Z,94093.88
2023-03-07T13:40:29.565Z,94091.25
2023-03-07T13:45:40.096Z,94083.16
2023-03-07T13:50:44.782Z,94071.72
2023-03-07T13:55:49.202Z,94080.22
2023-03-07T14:00:54.635Z,94091.31
2023-03-07T14:06:03.754Z,94096.13
2023-03-07T14:11:13.887Z,94101.19
2023-03-07T14:16:30.942Z,94090.31
2023-03-07T14:21:41.261Z,94095.13
2023-03-07T14:26:50.875Z,94086.13
2023-03-07T14:31:55.140Z,94093.31
2023-03-07T14:37:02.527Z,94086.38
2023-03-07T14:42:20.265Z,94099.06
2023-03-07T14:47:58.971Z,94106.97
2023-03-07T14:53:05.478Z,94112.00
2023-03-07T14:58:07.359Z,94113.09
2023-03-07T15:03:12.961Z,94117.16
2023-03-07T15:08:18.810Z,94132.44
2023-03-07T15:13:30.035Z,94132.19
2023-03-07T15:18:42.228Z,94130.81
2023-03-07T15:23:51.765Z,94121.94
2023-03-07T15:29:00.989Z,94132.50
2023-03-07T15:34:22.715Z,94137.44
2023-03-07T15:39:30.711Z,94140.59
2023-03-07T15:44:33.132Z,94151.97
2023-03-07T15:49:50.189Z,94144.91
2023-03-07T15:54:54.551Z,94146.06
2023-03-07T16:00:06.658Z,94143.13
2023-03-07T16:05:20.101Z,94141.19
2023-03-07T16:10:26.534Z,94137.25
2023-03-07T16:15:28.583Z,94154.00
2023-03-07T16:20:30.136Z,94154.34
2023-03-07T16:25:31.674Z,94162.06
2023-03-07T16:30:33.233Z,94155.31
2023-03-07T16:35:34.752Z,94157.28
2023-03-07T16:40:40.710Z,94172.53
2023-03-07T16:45:42.285Z,94180.84
2023-03-07T16:50:43.810Z,94191.53
2023-03-07T16:55:46.119Z,94208.34
2023-03-07T17:00:47.752Z,94210.81
2023-03-07T17:05:49.266Z,94223.84
2023-03-07T17:10:50.813Z,94243.44
2023-03-07T17:15:52.404Z,94247.72
2023-03-07T17:20:53.947Z,94242.94
2023-03-07T17:25:55.520Z,94258.66
2023-03-07T17:30:57.070Z,94273.94
2023-03-07T17:35:58.652Z,94289.94
2023-03-07T17:41:00.170Z,94284.09
2023-03-07T17:46:01.777Z,94291.19
2023-03-07T17:51:12.169Z,94299.72
2023-03-07T17:56:13.678Z,94327.56
2023-03-07T18:01:15.577Z,94337.84
2023-03-07T18:06:17.049Z,94351.88
2023-03-07T18:11:18.614Z,94355.44
2023-03-07T18:16:20.139Z,94366.53
2023-03-07T18:21:21.724Z,94369.91
2023-03-07T18:26:23.262Z,94370.59
2023-03-07T18:31:26.577Z,94380.56
2023-03-07T18:36:28.261Z,94390.53
2023-03-07T18:41:29.915Z,94382.84
2023-03-07T18:46:31.508Z,94380.41
2023-03-07T18:51:33.074Z,94382.50
2023-03-07T18:56:34.641Z,94392.03
2023-03-07T19:01:37.215Z,94391.03
2023-03-07T19:06:42.000Z,94400.81
2023-03-07T19:11:44.126Z,94404.94
2023-03-07T19:16:45.925Z,94404.41
2023-03-07T19:21:47.564Z,94397.53
2023-03-07T19:26:49.359Z,94407.84
2023-03-07T19:31:50.923Z,94412.03
2023-03-07T19:36:52.458Z,94434.19
2023-03-07T19:41:53.982Z,94446.44
2023-03-07T19:46:55.543Z,94450.84
2023-03-07T19:51:56.991Z,94466.13
2023-03-07T19:56:58.463Z,94461.97
2023-03-07T20:01:59.997Z,94448.47
2023-03-07T20:07:01.480Z,94447.41
2023-03-07T20:12:02.954Z,94460.63
2023-03-07T20:17:04.402Z,94470.13
2023-03-07T20:22:06.031Z,94462.28
2023-03-07T20:27:07.525Z,94476.34
2023-03-07T20:32:09.047Z,94481.66
2023-03-07T20:37:10.888Z,94493.53
2023-03-07T20:42:12.348Z,94487.47
2023-03-07T20:47:13.800Z,94493.06
2023-03-07T20:52:15.470Z,94492.25
2023-03-07T20:57:16.925Z,94497.38
2023-03-07T21:02:18.369Z,94503.44
2023-03-07T21:07:19.910Z,94514.81
2023-03-07T21:12:21.361Z,94511.47
2023-03-07T21:17:22.877Z,94526.66
2023-03-07T21:22:24.365Z,94520.28
2023-03-07T21:27:27.537Z,94525.28
2023-03-07T21:32:29.002Z,94534.38
2023-03-07T21:37:30.480Z,94537.94
2023-03-07T21:42:32.898Z,94523.13
2023-03-07T21:47:34.390Z,94536.31
2023-03-07T21:52:35.915Z,94549.13
2023-03-07T21:57:37.396Z,94544.66
2023-03-07T22:02:38.953Z,94549.59
2023-03-07T22:07:40.425Z,94560.63
2023-03-07T22:12:42.339Z,94567.19
2023-03-07T22:17:43.812Z,94574.13
2023-03-07T22:22:45.405Z,94570.69
2023-03-07T22:27:46.861Z,94574.41
2023-03-07T22:32:48.332Z,94580.31
2023-03-07T22:37:49.813Z,94572.03
2023-03-07T22:42:51.303Z,94590.09
2023-03-07T22:47:52.876Z,94582.78
2023-03-07T22:52:54.479Z,94579.63
2023-03-07T22:57:55.947Z,94591.47
2023-03-07T23:02:57.447Z,94592.41
2023-03-07T23:08:00.203Z,94582.03
2023-03-07T23:13:01.710Z,94585.94
2023-03-07T23:18:03.453Z,94589.53
2023-03-07T23:23:05.072Z,94584.25
2023-03-07T23:28:06.566Z,94586.09
2023-03-07T23:33:08.074Z,94585.53
2023-03-07T23:38:12.676Z,94579.38
2023-03-07T23:43:14.466Z,94581.34
2023-03-07T23:48:15.915Z,94574.75
2023-03-07T23:53:17.416Z,94578.38
2023-03-07T23:58:18.978Z,94585.50
